Time;durP1;ratioP1;P1;durP2;ratioP2;P2;SDS_P1;SDS_P2;PMS_P1;PMS_P2;Temp;Humidity;BMP_temperature;BMP_pressure;BME280_temperature;BME280_humidity;BME280_pressure;Samples;Min_cycle;Max_cycle;Signal;HPM_P1;HPM_P2
2022/02/10 00:36:08;;;;;;;;;;;;;;;22.24;24.73;96346.00;10466094;28;1806;-57
2022/02/10 00:41:08;;;;;;;;;;;;;;;22.22;24.75;96348.91;10473853;28;2020;-58
2022/02/10 00:46:09;;;;;;;;;;;;;;;22.23;24.38;96347.88;10466683;28;1853;-55
2022/02/10 00:51:10;;;;;;;;;;;;;;;22.23;24.48;96347.06;10470261;28;1779;-57
2022/02/10 00:56:10;;;;;;;;;;;;;;;22.21;24.47;96344.72;10466093;28;1893;-58
2022/02/10 01:32:58;;;;;;;;;;;;;;;22.20;24.06;96352.88;10466201;28;1897;-57
2022/02/10 01:37:59;;;;;;;;;;;;;;;22.21;24.28;96343.91;10465206;28;1910;-57
2022/02/10 02:04:02;;;;;;;;;;;;;;;22.20;24.35;96326.47;10464769;28;1909;-58
2022/02/10 02:09:09;;;;;;;;;;;;;;;22.21;24.01;96312.22;10462823;28;1839;-59
2022/02/10 02:14:19;;;;;;;;;;;;;;;22.19;24.29;96309.06;10468425;28;1915;-57
2022/02/10 02:19:32;;;;;;;;;;;;;;;22.18;24.01;96303.00;10470324;28;1913;-59
2022/02/10 02:24:32;;;;;;;;;;;;;;;22.18;24.20;96284.50;10473632;28;1858;-59
2022/02/10 02:29:44;;;;;;;;;;;;;;;22.17;23.89;96280.28;10470270;28;1926;-59
2022/02/10 03:06:18;;;;;;;;;;;;;;;22.15;23.82;96263.94;10477219;28;1884;-59
2022/02/10 03:11:19;;;;;;;;;;;;;;;22.14;24.03;96249.13;10477706;28;1994;-57
2022/02/10 04:29:45;;;;;;;;;;;;;;;22.14;23.79;96228.03;10479709;28;1975;-48
2022/02/10 05:37:52;;;;;;;;;;;;;;;22.08;23.70;96210.63;10457387;28;2040;-43
2022/02/10 05:59:04;;;;;;;;;;;;;;;22.10;23.60;96226.19;10449940;28;1980;-43
2022/02/10 07:54:38;;;;;;;;;;;;;;;22.11;23.72;96231.22;10484251;28;2006;-42
2022/02/10 08:18:05;;;;;;;;;;;;;;;22.15;23.82;96232.25;10477390;28;2044;-49
2022/02/10 08:58:39;;;;;;;;;;;;;;;22.31;24.02;96202.06;10476586;28;1798;-41
2022/02/10 10:01:14;;;;;;;;;;;;;;;22.62;24.53;96203.47;10467097;28;1815;-57
2022/02/10 10:06:20;;;;;;;;;;;;;;;22.62;24.50;96206.09;10454363;28;1830;-55
2022/02/10 10:22:00;;;;;;;;;;;;;;;22.68;24.28;96188.34;10465021;28;1908;-58
2022/02/10 10:44:31;;;;;;;;;;;;;;;22.76;24.39;96176.38;10386744;28;1880;-57
2022/02/10 10:59:38;;;;;;;;;;;;;;;22.81;25.25;96148.09;10433413;28;1827;-59
2022/02/10 13:23:25;;;;;;;;;;;;;;;22.95;26.07;96027.41;10435097;28;1960;-59
2022/02/10 14:16:11;;;;;;;;;;;;;;;22.62;26.11;96018.50;10432562;28;1969;-59
2022/02/10 14:21:17;;;;;;;;;;;;;;;22.57;26.26;96023.78;10443281;28;1807;-59
2022/02/10 14:26:34;;;;;;;;;;;;;;;22.58;26.29;96025.41;10433966;28;1893;-58
2022/02/10 14:31:34;;;;;;;;;;;;;;;22.55;26.33;96028.56;10445656;28;1816;-57
2022/02/10 14:36:43;;;;;;;;;;;;;;;22.49;26.18;96034.97;10438043;28;2036;-59
2022/02/10 16:11:41;;;;;;;;;;;;;;;23.72;25.22;96007.63;10379672;28;1999;-46
2022/02/10 16:27:16;;;;;;;;;;;;;;;23.80;24.99;95996.38;10395861;28;1804;-45
2022/02/10 16:32:16;;;;;;;;;;;;;;;23.79;24.75;95989.53;10376813;28;1982;-47
2022/02/10 16:37:17;;;;;;;;;;;;;;;23.83;24.80;95982.59;10373779;28;1969;-45
2022/02/10 16:42:18;;;;;;;;;;;;;;;23.84;24.40;95991.31;10379845;28;1888;-45
2022/02/10 16:47:18;;;;;;;;;;;;;;;23.87;24.98;95994.16;10380260;28;1826;-46
2022/02/10 16:52:27;;;;;;;;;;;;;;;23.86;24.30;95992.63;10378419;28;1844;-49
2022/02/10 16:57:41;;;;;;;;;;;;;;;23.82;24.70;95999.53;10377014;28;1961;-47
2022/02/10 17:29:14;;;;;;;;;;;;;;;23.97;24.20;96004.59;10391068;28;1967;-45
2022/02/10 17:34:25;;;;;;;;;;;;;;;23.99;24.19;96015.69;10382533;28;1843;-50
2022/02/10 17:55:10;;;;;;;;;;;;;;;24.01;24.12;96049.81;10401116;28;1922;-49
2022/02/10 18:00:10;;;;;;;;;;;;;;;24.06;24.58;96055.09;10401608;28;1838;-49
2022/02/10 18:05:26;;;;;;;;;;;;;;;24.04;24.42;96063.31;10403527;28;1819;-45
2022/02/10 18:15:49;;;;;;;;;;;;;;;24.07;24.48;96060.09;10403895;28;1976;-48
2022/02/10 18:20:56;;;;;;;;;;;;;;;23.88;24.78;96066.44;10386142;28;1835;-46
2022/02/10 18:26:11;;;;;;;;;;;;;;;23.72;25.11;96067.75;10389477;28;1837;-48
2022/02/10 19:08:06;;;;;;;;;;;;;;;23.31;25.55;96115.81;10399027;28;1815;-46
2022/02/10 19:13:08;;;;;;;;;;;;;;;23.22;25.53;96116.72;10378538;28;2067;-52
2022/02/10 19:18:09;;;;;;;;;;;;;;;23.11;25.96;96116.06;10364184;28;2579;-49
2022/02/10 19:23:10;;;;;;;;;;;;;;;23.04;25.71;96123.50;10383230;28;1869;-50
2022/02/10 19:28:11;;;;;;;;;;;;;;;22.94;26.22;96120.97;10401495;28;1909;-53
2022/02/10 19:33:14;;;;;;;;;;;;;;;22.88;26.08;96121.31;10384049;28;1909;-52
2022/02/10 19:38:17;;;;;;;;;;;;;;;22.81;26.33;96123.50;10379823;28;1982;-52
2022/02/10 19:43:19;;;;;;;;;;;;;;;22.77;26.17;96135.69;10364090;28;2027;-51
2022/02/10 19:48:22;;;;;;;;;;;;;;;22.79;26.10;96137.00;10374899;28;1915;-51
2022/02/10 19:53:23;;;;;;;;;;;;;;;22.88;25.77;96143.25;10394645;28;1976;-49
2022/02/10 19:58:24;;;;;;;;;;;;;;;22.94;26.17;96146.63;10394105;28;1974;-52
2022/02/10 20:03:26;;;;;;;;;;;;;;;23.05;26.57;96143.63;10396922;28;1897;-53
2022/02/10 20:08:30;;;;;;;;;;;;;;;22.95;26.06;96154.28;10396843;28;1814;-52
2022/02/10 20:13:32;;;;;;;;;;;;;;;22.92;26.35;96156.69;10396936;28;1894;-48
2022/02/10 20:18:33;;;;;;;;;;;;;;;22.93;26.89;96158.28;10359470;28;2526;-49
2022/02/10 20:23:33;;;;;;;;;;;;;;;22.94;26.65;96162.47;10394632;28;2112;-46
2022/02/10 20:28:34;;;;;;;;;;;;;;;22.91;27.11;96158.56;10389391;28;1722;-46
2022/02/10 20:33:35;;;;;;;;;;;;;;;23.00;27.11;96150.81;10388892;28;1869;-45
2022/02/10 20:38:38;;;;;;;;;;;;;;;22.91;27.39;96155.91;10371848;28;1974;-45
2022/02/10 20:43:38;;;;;;;;;;;;;;;22.89;27.14;96157.25;10380458;28;1816;-46
2022/02/10 20:48:40;;;;;;;;;;;;;;;22.87;27.16;96152.25;10379366;28;1998;-49
2022/02/10 20:53:42;;;;;;;;;;;;;;;22.81;27.37;96157.84;10397864;28;1866;-48
2022/02/10 20:58:42;;;;;;;;;;;;;;;22.78;27.25;96155.75;10396136;28;1957;-47
2022/02/10 21:03:44;;;;;;;;;;;;;;;22.77;27.20;96148.91;10393682;28;1978;-45
2022/02/10 21:13:45;;;;;;;;;;;;;;;22.72;27.42;96133.09;10375853;28;1847;-46
2022/02/10 21:18:46;;;;;;;;;;;;;;;22.69;27.28;96120.44;10390843;28;1975;-47
2022/02/10 21:23:53;;;;;;;;;;;;;;;22.67;27.50;96121.50;10380027;28;1927;-48
2022/02/10 21:28:58;;;;;;;;;;;;;;;22.67;27.21;96121.50;10381480;28;1830;-49
2022/02/10 21:56:24;;;;;;;;;;;;;;;22.66;27.57;96124.41;10401923;28;1955;-71
2022/02/10 22:16:44;;;;;;;;;;;;;;;22.53;26.94;96094.09;10407448;28;1914;-71
2022/02/10 22:21:49;;;;;;;;;;;;;;;22.53;27.29;96090.66;10400251;28;1755;-72
2022/02/10 22:26:52;;;;;;;;;;;;;;;22.63;28.10;96083.47;10410962;28;1783;-71
2022/02/10 22:32:42;;;;;;;;;;;;;;;22.54;27.42;96079.84;10411737;28;1854;-73
2022/02/10 22:37:20;;;;;;;;;;;;;;;22.52;27.24;96081.19;10399484;28;1922;-71
2022/02/10 22:42:25;;;;;;;;;;;;;;;22.61;27.49;96072.41;10410934;28;1916;-73
2022/02/10 22:47:25;;;;;;;;;;;;;;;22.52;27.27;96065.34;10406390;28;1855;-71
2022/02/10 22:52:25;;;;;;;;;;;;;;;22.46;26.67;96059.28;10404023;28;1832;-71
2022/02/10 22:57:26;;;;;;;;;;;;;;;22.47;26.78;96057.44;10396224;28;1977;-71
2022/02/10 23:02:26;;;;;;;;;;;;;;;22.60;27.62;96052.34;10410717;28;1797;-73
2022/02/10 23:07:27;;;;;;;;;;;;;;;22.51;27.42;96045.25;10406969;28;1734;-72
2022/02/10 23:12:27;;;;;;;;;;;;;;;22.53;27.10;96040.47;10408914;28;1807;-73
2022/02/10 23:17:27;;;;;;;;;;;;;;;22.50;26.64;96035.75;10420276;28;1914;-73
2022/02/10 23:22:27;;;;;;;;;;;;;;;22.49;26.03;96032.31;10427982;28;1828;-72
2022/02/10 23:27:28;;;;;;;;;;;;;;;22.48;27.48;96030.75;10430704;28;1882;-74
2022/02/10 23:32:28;;;;;;;;;;;;;;;22.47;26.59;96021.25;10428353;28;1767;-71
2022/02/10 23:37:30;;;;;;;;;;;;;;;22.48;27.25;96028.09;10415050;28;1922;-73
2022/02/10 23:42:32;;;;;;;;;;;;;;;22.48;26.32;96011.47;10407779;28;1837;-73
2022/02/10 23:47:33;;;;;;;;;;;;;;;22.49;26.93;96005.13;10404114;28;1856;-72
2022/02/10 23:52:33;;;;;;;;;;;;;;;22.47;25.72;96000.13;10415201;28;1838;-74
2022/02/10 23:57:57;;;;;;;;;;;;;;;22.46;25.58;95995.13;10408042;28;1910;-74
